New Orleans, Louisiana
Traffic Map
Current Weather Conditions
New Orleans, Louisiana
Scattered Clouds
Scattered Clouds
85°
Feels Like: 88°
Wind Chill: 85° Ceiling: Unl
Heat Index: 88° Visibility: 10mi
Dew Point: 67° Wind: 12mph
Humidity: 55% Direction: 120° (ESE)
Pressure: 30.09in Gusts: 0mph
Raw Report DataKNEW 241853Z 12010KT 10SM SCT038 29/19 A3009 RMK AO2 SLP183 T02940194
Traffic Incident Summary
Active as of:
Severity:
Category:
InformationThere was an issue retrieving the traffic information for this location. Please try a different location or try again shortly.
Advertisements
Track Severe Weather on mobile